createdAt,value
2023-05-04T00:00:08.055Z,55.50
2023-05-04T00:02:34.929Z,55.10
2023-05-04T00:05:01.788Z,55.50
2023-05-04T00:07:28.494Z,55.40
2023-05-04T00:09:55.054Z,55.80
2023-05-04T00:12:21.628Z,55.90
2023-05-04T00:14:48.596Z,55.70
2023-05-04T00:17:15.127Z,55.60
2023-05-04T00:19:42.842Z,55.30
2023-05-04T00:22:09.480Z,56.00
2023-05-04T00:24:36.216Z,54.90
2023-05-04T00:27:02.890Z,55.00
2023-05-04T00:29:30.145Z,55.50
2023-05-04T00:31:57.186Z,54.50
2023-05-04T00:34:24.233Z,54.50
2023-05-04T00:36:50.803Z,54.90
2023-05-04T00:39:17.867Z,54.90
2023-05-04T00:41:45.709Z,55.10
2023-05-04T00:44:12.561Z,54.80
2023-05-04T00:46:39.337Z,54.60
2023-05-04T00:49:06.224Z,54.80
2023-05-04T00:51:33.330Z,54.60
2023-05-04T00:54:00.074Z,54.60
2023-05-04T00:56:27.472Z,54.60
2023-05-04T00:58:54.701Z,54.90
2023-05-04T01:01:24.626Z,55.20
2023-05-04T01:03:51.947Z,54.50
2023-05-04T01:06:21.377Z,54.30
2023-05-04T01:08:57.868Z,54.70
2023-05-04T01:11:32.387Z,54.90
2023-05-04T01:14:00.055Z,54.50
2023-05-04T01:16:26.669Z,54.60
2023-05-04T01:18:53.267Z,54.20
2023-05-04T01:21:19.818Z,54.30
2023-05-04T01:23:46.569Z,54.20
2023-05-04T01:26:13.111Z,54.00
2023-05-04T01:28:42.562Z,54.30
2023-05-04T01:31:09.903Z,53.90
2023-05-04T01:33:37.158Z,54.00
2023-05-04T01:36:04.076Z,53.90
2023-05-04T01:38:31.058Z,53.70
2023-05-04T01:40:57.647Z,53.70
2023-05-04T01:43:24.371Z,53.70
2023-05-04T01:45:51.019Z,53.60
2023-05-04T01:48:17.563Z,53.40
2023-05-04T01:50:44.250Z,53.80
2023-05-04T01:53:10.864Z,53.40
2023-05-04T01:55:37.635Z,53.70
2023-05-04T01:58:04.203Z,53.70
2023-05-04T02:00:30.883Z,53.70
2023-05-04T02:02:57.479Z,53.80
2023-05-04T02:05:24.097Z,53.40
2023-05-04T02:07:50.761Z,53.50
2023-05-04T02:10:17.315Z,53.40
2023-05-04T02:12:43.896Z,53.80
2023-05-04T02:15:10.832Z,53.40
2023-05-04T02:17:37.428Z,53.20
2023-05-04T02:20:05.207Z,53.40
2023-05-04T02:22:32.598Z,53.50
2023-05-04T02:24:59.135Z,53.50
2023-05-04T02:27:25.819Z,53.40
2023-05-04T02:29:52.351Z,53.20
2023-05-04T02:32:18.932Z,53.20
2023-05-04T02:34:45.491Z,52.90
2023-05-04T02:37:12.043Z,52.70
2023-05-04T02:39:38.862Z,53.20
2023-05-04T02:42:06.032Z,52.70
2023-05-04T02:44:32.615Z,53.00
2023-05-04T02:46:59.166Z,53.10
2023-05-04T02:49:26.233Z,53.40
2023-05-04T02:51:52.824Z,53.40
2023-05-04T02:54:19.397Z,53.00
2023-05-04T02:56:45.962Z,52.90
2023-05-04T02:59:12.558Z,52.70
2023-05-04T03:01:39.247Z,52.90
2023-05-04T03:04:06.828Z,52.70
2023-05-04T03:06:33.545Z,52.90
2023-05-04T03:09:00.108Z,52.70
2023-05-04T03:11:26.773Z,52.40
2023-05-04T03:13:53.383Z,52.70
2023-05-04T03:16:20.710Z,53.10
2023-05-04T03:18:59.539Z,53.80
2023-05-04T03:21:26.136Z,52.70
2023-05-04T03:23:52.720Z,52.70
2023-05-04T03:26:19.296Z,52.90
2023-05-04T03:28:45.853Z,52.70
2023-05-04T03:31:12.425Z,52.30
2023-05-04T03:33:39.029Z,52.50
2023-05-04T03:36:05.688Z,52.80
2023-05-04T03:38:32.784Z,52.90
2023-05-04T03:40:59.350Z,52.80
2023-05-04T03:43:25.971Z,52.60
2023-05-04T03:45:52.538Z,53.00
2023-05-04T03:48:19.119Z,52.70
2023-05-04T03:50:45.708Z,52.80
2023-05-04T03:53:12.273Z,52.70
2023-05-04T03:55:39.059Z,52.90
2023-05-04T03:58:05.707Z,53.20
2023-05-04T04:00:32.452Z,52.80
2023-05-04T04:02:59.199Z,53.00
2023-05-04T04:05:25.870Z,53.10
2023-05-04T04:07:52.436Z,52.50
2023-05-04T04:10:19.118Z,52.50
2023-05-04T04:12:45.746Z,52.70
2023-05-04T04:15:12.547Z,52.70
2023-05-04T04:17:39.170Z,53.00
2023-05-04T04:20:06.380Z,52.80
2023-05-04T04:22:33.276Z,52.10
2023-05-04T04:24:59.842Z,52.40
2023-05-04T04:27:26.555Z,53.10
2023-05-04T04:29:53.138Z,52.40
2023-05-04T04:32:21.139Z,52.40
2023-05-04T04:34:47.830Z,52.70
2023-05-04T04:37:14.403Z,52.60
2023-05-04T04:39:41.136Z,53.20
2023-05-04T04:42:07.771Z,53.10
2023-05-04T04:44:34.848Z,53.20
2023-05-04T04:47:01.974Z,54.10
2023-05-04T04:49:28.838Z,53.30
2023-05-04T04:51:55.450Z,52.90
2023-05-04T04:54:22.041Z,53.80
2023-05-04T04:56:48.658Z,52.80
2023-05-04T04:59:15.228Z,52.30
2023-05-04T05:01:42.237Z,52.30
2023-05-04T05:04:08.921Z,52.50
2023-05-04T05:06:35.729Z,52.50
2023-05-04T05:09:02.691Z,52.70
2023-05-04T05:11:29.274Z,53.30
2023-05-04T05:13:56.102Z,53.40
2023-05-04T05:16:22.865Z,53.10
2023-05-04T05:18:49.450Z,53.30
2023-05-04T05:21:16.001Z,53.10
2023-05-04T05:23:42.670Z,53.10
2023-05-04T05:26:09.291Z,52.70
2023-05-04T05:28:35.871Z,52.90
2023-05-04T05:31:02.683Z,53.20
2023-05-04T05:33:29.264Z,53.10
2023-05-04T05:35:56.199Z,53.00
2023-05-04T05:38:22.785Z,53.40
2023-05-04T05:40:49.575Z,54.00
2023-05-04T05:43:16.245Z,53.40
2023-05-04T05:45:43.079Z,53.50
2023-05-04T05:48:09.811Z,53.40
2023-05-04T05:50:36.498Z,53.70
2023-05-04T05:53:03.086Z,53.90
2023-05-04T05:55:29.682Z,53.40
2023-05-04T05:57:56.256Z,53.20
2023-05-04T06:00:22.907Z,53.40
2023-05-04T06:02:49.522Z,53.20
2023-05-04T06:05:16.377Z,53.30
2023-05-04T06:07:42.955Z,53.30
2023-05-04T06:10:10.511Z,53.60
2023-05-04T06:12:37.094Z,54.00
2023-05-04T06:15:03.873Z,53.60
2023-05-04T06:17:30.493Z,53.50
2023-05-04T06:19:57.179Z,53.60
2023-05-04T06:22:23.779Z,53.30
2023-05-04T06:24:50.365Z,53.60
2023-05-04T06:27:16.978Z,53.60
2023-05-04T06:29:43.586Z,53.40
2023-05-04T06:32:10.376Z,54.10
2023-05-04T06:34:37.084Z,53.70
2023-05-04T06:37:03.665Z,53.30
2023-05-04T06:39:30.816Z,53.30
2023-05-04T06:41:57.392Z,53.10
2023-05-04T06:44:24.015Z,52.80
2023-05-04T06:46:51.280Z,52.90
2023-05-04T06:49:18.127Z,52.70
2023-05-04T06:51:44.794Z,52.80
2023-05-04T06:54:11.703Z,52.50
2023-05-04T06:56:39.577Z,52.50
2023-05-04T06:59:06.327Z,52.80
2023-05-04T07:01:32.944Z,52.70
2023-05-04T07:03:59.640Z,52.60
2023-05-04T07:06:29.524Z,52.40
2023-05-04T07:08:56.512Z,52.40
2023-05-04T07:11:23.553Z,52.60
2023-05-04T07:13:50.441Z,52.60
2023-05-04T07:16:16.983Z,52.70
2023-05-04T07:18:43.600Z,52.70
2023-05-04T07:21:26.654Z,52.70
2023-05-04T07:23:54.958Z,53.10
2023-05-04T07:26:22.122Z,53.40
2023-05-04T07:28:48.735Z,53.20
2023-05-04T07:31:15.891Z,53.10
2023-05-04T07:33:42.608Z,53.10
2023-05-04T07:36:09.358Z,53.20
2023-05-04T07:38:36.354Z,53.30
2023-05-04T07:41:02.932Z,53.50
2023-05-04T07:43:29.543Z,53.30
2023-05-04T07:45:56.609Z,53.20
2023-05-04T07:48:25.242Z,53.30
2023-05-04T07:50:54.006Z,53.30
2023-05-04T07:53:20.919Z,53.50
2023-05-04T07:55:47.926Z,53.50
2023-05-04T07:58:16.459Z,53.60
2023-05-04T08:00:43.269Z,53.20
2023-05-04T08:03:10.118Z,53.60
2023-05-04T08:05:36.730Z,53.30
2023-05-04T08:08:03.588Z,53.50
2023-05-04T08:10:30.223Z,53.10
2023-05-04T08:12:56.946Z,52.30
2023-05-04T08:15:23.617Z,52.40
2023-05-04T08:17:50.529Z,51.70
2023-05-04T08:20:17.223Z,51.60
2023-05-04T08:22:43.851Z,51.00
2023-05-04T08:25:10.505Z,51.30
2023-05-04T08:27:37.255Z,52.00
2023-05-04T08:30:04.951Z,52.60
2023-05-04T08:32:33.256Z,52.00
2023-05-04T08:34:59.944Z,51.20
2023-05-04T08:37:26.544Z,50.10
2023-05-04T08:39:53.192Z,50.20
2023-05-04T08:42:28.958Z,50.70
2023-05-04T08:44:56.196Z,51.60
2023-05-04T08:47:23.176Z,50.30
2023-05-04T08:49:49.954Z,50.80
2023-05-04T08:52:16.929Z,49.60
2023-05-04T08:54:44.190Z,48.50
2023-05-04T08:57:11.838Z,48.10
2023-05-04T08:59:38.662Z,48.10
2023-05-04T09:02:05.664Z,47.60
2023-05-04T09:04:32.513Z,48.30
2023-05-04T09:06:59.156Z,46.30
2023-05-04T09:09:28.981Z,46.90
2023-05-04T09:11:55.752Z,46.50
2023-05-04T09:14:22.973Z,47.40
2023-05-04T09:16:49.676Z,48.00
2023-05-04T09:19:17.650Z,48.10
2023-05-04T09:21:44.366Z,47.70
2023-05-04T09:24:12.577Z,47.60
